Latest Weather Observations for Hay Airport

IDN60801

Issued at 3:33 pm EDT Tuesday 18 January 2022 (issued every 10 minutes, with the page automatically refreshed every 10 minutes)

About weather observations | Map of weather stations | Latest weather observations for NSW | Other Formats
Station Details ID: 075019 Name: HAY AIRPORT AWS Lat: -34.54 Lon: 144.83 Height: 92.0 m
Data from the previous 72 hours. | See also: Recent months at Hay Airport
Date/Time
EDT
Temp
°C
App
Temp
°C
Dew
Point
°C
Rel
Hum
%
Delta-T
°C
Wind Press
QNH
hPa
Press
MSL
hPa
Rain since
9am
mm
Dir  Spd
km/h
Gust
km/h
Spd
kts
Gust
kts
18/03:30pm 30.6 27.6 10.5 29 11.5 S 17 26 9 14 1011.0 1010.6 0.0
18/03:00pm 29.5 25.4 8.5 27 11.6 S 20 30 11 16 1011.5 1011.0 0.0
18/02:30pm 31.0 27.0 10.4 28 11.8 SW 22 33 12 18 1011.7 1011.2 0.0
18/02:00pm 29.2 26.3 12.2 35 10.0 SSW 19 28 10 15 1012.1 1011.6 0.0
18/01:30pm 27.8 25.0 12.6 39 8.9 S 19 24 10 13 1012.5 1012.0 0.0
18/01:00pm 26.7 24.7 13.8 45 7.7 SSW 17 26 9 14 1012.7 1012.2 0.0
18/12:30pm 27.6 25.0 13.9 43 8.2 SSW 20 26 11 14 1013.0 1012.5 0.0
18/12:00pm 27.2 24.9 14.2 44 7.8 SSW 19 24 10 13 1013.1 1012.6 0.0
18/11:30am 25.5 23.5 14.0 49 6.8 SSW 17 26 9 14 1013.4 1012.9 0.0
18/11:00am 24.1 22.1 13.9 53 6.0 SSW 17 22 9 12 1013.3 1012.8 0.0
18/10:30am 23.2 21.1 13.7 55 5.6 SSW 17 22 9 12 1013.2 1012.7 0.0
18/10:00am 21.8 20.1 13.7 60 4.7 S 15 20 8 11 1013.0 1012.5 0.0
18/09:30am 20.8 18.4 13.7 64 4.1 SSW 19 26 10 14 1012.9 1012.4 0.0
18/09:00am 20.1 17.7 13.8 67 3.6 S 19 22 10 12 1012.7 1012.2 0.0
18/08:30am 19.7 17.8 14.1 70 3.2 SSW 17 22 9 12 1012.6 1012.1 0.0
18/08:00am 19.8 18.0 14.4 71 3.1 S 17 24 9 13 1012.3 1011.8 0.0
18/07:30am 19.6 17.8 14.4 72 3.0 S 17 24 9 13 1011.8 1011.3 0.0
18/07:00am 19.4 18.9 14.9 75 2.6 S 11 15 6 8 1011.5 1011.0 0.0
18/06:30am 19.6 18.2 14.4 72 3.0 SSW 15 20 8 11 1011.4 1010.9 0.0
18/06:00am 20.4 19.2 14.1 67 3.7 SSW 13 19 7 10 1010.8 1010.4 0.0
18/05:30am 21.0 20.3 14.4 66 3.9 WSW 11 17 6 9 1010.5 1010.1 0.0
18/05:00am 21.3 21.2 14.9 67 3.8 W 9 11 5 6 1010.3 1009.9 0.0
18/04:30am 20.9 21.6 16.1 74 2.9 NNW 7 9 4 5 1009.9 1009.5 0.0
18/04:00am 21.0 21.7 16.2 74 2.9 N 7 9 4 5 1009.9 1009.5 0.0
18/03:30am 21.9 22.4 15.5 67 3.8 W 7 9 4 5 1010.0 1009.6 0.0
18/03:00am 21.4 22.0 15.9 71 3.3 WNW 7 9 4 5 1010.3 1009.9 0.0
18/02:30am 21.1 21.8 16.1 73 3.0 NW 7 9 4 5 1010.5 1010.1 0.0
18/02:00am 21.3 22.1 16.3 73 3.0 WNW 7 9 4 5 1010.5 1010.1 0.0
18/01:30am 21.3 21.6 16.0 72 3.2 N 9 11 5 6 1010.8 1010.4 0.0
18/01:00am 21.2 21.6 16.2 73 3.0 NW 9 13 5 7 1011.1 1010.7 0.0
18/12:30am 21.9 22.8 16.2 70 3.5 W 6 7 3 4 1010.9 1010.5 0.0
18/12:00am 21.7 23.8 17.1 75 2.8 WNW 2 7 1 4 1011.0 1010.6 0.0
 
Date/Time
EDT
Temp
°C
App
Temp
°C
Dew
Point
°C
Rel
Hum
%
Delta-T
°C
Wind Press
QNH
hPa
Press
MSL
hPa
Rain since
9am
mm
Dir  Spd
km/h
Gust
km/h
Spd
kts
Gust
kts
17/11:30pm 21.8 22.5 16.1 70 3.4 WNW 7 7 4 4 1011.6 1011.1 0.0
17/11:00pm 22.5 22.8 15.1 63 4.4 WNW 7 9 4 5 1011.7 1011.2 0.0
17/10:30pm 22.2 21.9 15.5 66 4.0 NW 11 15 6 8 1012.0 1011.5 0.0
17/10:00pm 22.7 22.3 15.3 63 4.4 NNW 11 13 6 7 1011.8 1011.3 0.0
17/09:30pm 22.7 22.4 15.5 64 4.3 NNW 11 13 6 7 1011.7 1011.2 0.0
17/09:00pm 22.7 22.5 15.8 65 4.2 NNW 11 11 6 6 1011.7 1011.2 0.0
17/08:30pm 23.7 23.7 15.2 59 5.1 WNW 9 11 5 6 1011.6 1011.1 0.0
17/08:00pm 24.2 23.7 14.9 56 5.6 W 11 17 6 9 1011.1 1010.7 0.0
17/07:30pm 24.3 23.8 15.0 56 5.6 W 11 17 6 9 1011.0 1010.6 0.0
17/07:00pm 24.1 22.4 14.8 56 5.6 W 17 22 9 12 1010.9 1010.5 0.0
17/06:30pm 23.9 22.3 15.1 58 5.3 WSW 17 24 9 13 1010.7 1010.3 0.0
17/06:00pm 23.5 22.1 15.5 60 4.8 WSW 17 20 9 11 1010.4 1010.0 0.0
17/05:30pm 23.7 20.8 16.0 62 4.7 WSW 26 32 14 17 1010.4 1010.0 0.0
17/05:00pm 26.6 25.9 15.3 50 6.9 WSW 13 24 7 13 1009.9 1009.5 0.0
17/04:30pm 27.6 28.4 14.9 45 7.7 N 4 11 2 6 1009.9 1009.5 0.0
17/04:00pm 27.7 27.4 15.4 47 7.5 N 11 15 6 8 1009.6 1009.2 0.0
17/03:30pm 28.5 29.8 14.0 41 8.7 CALM 0 0 0 0 1009.4 1009.0 0.0
17/03:00pm 28.0 27.7 14.3 43 8.3 SSW 9 15 5 8 1009.4 1009.0 0.0
17/02:30pm 29.0 26.8 14.4 41 8.8 SW 19 26 10 14 1009.9 1009.5 0.0
17/02:00pm 28.9 28.7 13.6 39 9.2 SW 7 15 4 8 1009.9 1009.5 0.0
17/01:30pm 28.1 27.4 14.3 42 8.3 S 11 17 6 9 1009.7 1009.3 0.0
17/01:00pm 27.4 26.1 13.7 43 8.2 SSE 13 17 7 9 1010.3 1009.9 0.0
17/12:30pm 26.7 25.0 14.8 48 7.2 SSW 17 24 9 13 1010.8 1010.4 0.0
17/12:00pm 27.3 24.9 14.3 45 7.8 SSW 20 26 11 14 1011.1 1010.7 0.0
17/11:30am 26.9 24.6 14.6 46 7.4 SSW 20 24 11 13 1011.1 1010.7 0.0
17/11:00am 26.3 24.2 14.7 48 7.0 SSW 19 24 10 13 1010.9 1010.5 0.0
17/10:30am 26.0 25.2 15.1 51 6.6 SSW 13 17 7 9 1010.6 1010.2 0.0
17/10:00am 24.7 24.5 15.6 57 5.5 SW 11 17 6 9 1010.5 1010.1 0.0
17/09:30am 25.2 23.2 14.0 49 6.6 WSW 17 22 9 12 1010.5 1010.1 0.0
17/09:00am 25.0 22.7 14.2 51 6.4 WSW 19 22 10 12 1010.2 1009.8 0.0
17/08:30am 25.2 25.6 15.2 54 6.0 SW 7 11 4 6 1009.9 1009.5 0.0
17/08:00am 24.9 25.2 15.0 54 6.0 WSW 7 11 4 6 1009.5 1009.1 0.0
17/07:30am 24.9 24.3 14.7 53 6.1 WSW 11 15 6 8 1009.4 1009.0 0.0
17/07:00am 24.9 22.5 13.8 50 6.6 WSW 19 24 10 13 1007.9 1007.5 0.0
17/06:30am 25.6 21.4 13.5 47 7.1 WSW 28 37 15 20 1008.1 1007.7 0.0
17/06:00am 26.3 24.0 13.1 44 7.8 W 17 28 9 15 1007.7 1007.3 0.0
17/05:30am 27.2 24.3 12.8 41 8.4 WSW 20 28 11 15 1007.1 1006.6 0.0
17/05:00am 27.9 25.5 12.7 39 8.9 NW 17 22 9 12 1006.7 1006.2 0.0
17/04:30am 27.0 25.5 14.1 45 7.7 N 15 19 8 10 1006.6 1006.1 0.0
17/04:00am 26.8 24.2 13.9 45 7.7 NNW 20 28 11 15 1006.8 1006.3 0.0
17/03:30am 26.3 24.7 13.8 46 7.4 N 15 19 8 10 1006.3 1005.8 0.0
17/03:00am 27.4 25.0 12.6 40 8.7 NNE 17 20 9 11 1006.2 1005.7 0.0
17/02:30am 28.1 25.4 11.6 36 9.5 NE 17 24 9 13 1005.8 1005.3 0.0
17/02:00am 27.8 25.3 12.2 38 9.1 NNE 17 22 9 12 1006.1 1005.6 0.0
17/01:30am 28.1 25.7 12.8 38 9.0 NNE 17 20 9 11 1006.1 1005.6 0.0
17/01:00am 27.8 26.1 13.7 42 8.4 NE 15 20 8 11 1006.3 1005.8 0.0
17/12:30am 27.9 26.5 14.5 44 8.1 NE 15 19 8 10 1006.4 1005.9 0.0
17/12:00am 28.0 26.9 14.3 43 8.3 NE 13 17 7 9 1006.4 1005.9 0.0
 
Date/Time
EDT
Temp
°C
App
Temp
°C
Dew
Point
°C
Rel
Hum
%
Delta-T
°C
Wind Press
QNH
hPa
Press
MSL
hPa
Rain since
9am
mm
Dir  Spd
km/h
Gust
km/h
Spd
kts
Gust
kts
16/11:30pm 27.9 26.9 14.5 44 8.1 NE 13 17 7 9 1006.0 1005.5 0.0
16/11:00pm 27.7 26.6 14.3 43 8.1 NE 13 19 7 10 1006.4 1005.9 0.0
16/10:30pm 27.3 26.7 14.7 46 7.6 NE 11 13 6 7 1006.6 1006.1 0.0
16/10:00pm 28.0 27.3 14.3 43 8.3 NE 11 15 6 8 1006.4 1005.9 0.0
16/09:30pm 28.8 28.0 13.9 40 8.9 NE 11 15 6 8 1006.0 1005.5 0.0
16/09:00pm 29.3 28.1 13.9 39 9.3 NE 13 15 7 8 1005.8 1005.3 0.0
16/08:30pm 29.8 29.2 14.7 39 9.2 NE 11 13 6 7 1005.6 1005.1 0.0
16/08:00pm 30.8 30.6 14.8 37 9.8 NE 9 13 5 7 1005.5 1005.0 0.0
16/07:30pm 32.8 34.2 15.3 34 10.9 NNE 2 6 1 3 1005.3 1004.8 0.0
16/07:00pm 34.2 35.0 12.5 27 13.1 CALM 0 6 0 3 1005.2 1004.7 0.0
16/06:30pm 35.0 35.3 10.8 23 14.2 CALM 0 7 0 4 1005.1 1004.6 0.0
16/06:00pm 34.9 35.3 11.3 24 14.0 CALM 0 0 0 0 1005.0 1004.5 0.0
16/05:30pm 35.2 35.3 10.3 22 14.5 CALM 0 7 0 4 1005.2 1004.7 0.0
16/05:00pm 35.4 33.5 11.7 23 14.2 N 13 20 7 11 1005.5 1005.0 0.0
16/04:30pm 35.6 34.3 11.3 23 14.4 NNW 9 20 5 11 1005.7 1005.2 0.0
16/04:00pm 36.4 35.7 11.9 23 14.7 NNW 7 20 4 11 1005.5 1005.0 0.0
16/03:30pm 35.5 34.7 11.8 24 14.2 N 7 15 4 8 1006.1 1005.6 0.0
16/03:00pm 34.9 34.2 12.0 25 13.7 NW 7 13 4 7 1006.4 1005.9 0.0
16/02:30pm 34.2 33.9 11.4 25 13.5 WNW 4 13 2 7 1006.6 1006.1 0.0
16/02:00pm 34.0 33.6 11.2 25 13.4 SSW 4 11 2 6 1006.9 1006.4 0.0
16/01:30pm 33.4 32.9 11.9 27 12.8 ENE 6 17 3 9 1007.4 1007.0 0.0
16/01:00pm 33.1 33.2 12.7 29 12.3 NE 4 13 2 7 1007.7 1007.3 0.0
16/12:30pm 32.0 31.4 12.3 30 11.7 NE 7 15 4 8 1007.9 1007.5 0.0
16/12:00pm 31.8 31.7 14.0 34 10.9 ENE 7 15 4 8 1008.3 1007.9 0.0
16/11:30am 31.1 31.0 13.4 34 10.6 NNE 6 17 3 9 1008.6 1008.2 0.0
16/11:00am 29.7 29.2 13.9 38 9.5 NE 9 17 5 9 1008.5 1008.1 0.0
16/10:30am 28.6 27.9 14.4 41 8.6 ENE 11 17 6 9 1008.6 1008.2 0.0
16/10:00am 27.9 27.6 14.5 44 8.1 NE 9 15 5 8 1008.4 1008.0 0.0
16/09:30am 26.5 24.5 13.9 45 7.5 ESE 17 22 9 12 1008.1 1007.7 0.0
16/09:00am 25.0 23.8 15.0 53 6.0 ESE 15 20 8 11 1008.2 1007.8 0.0
16/08:30am 23.3 21.8 15.4 61 4.8 ESE 17 22 9 12 1007.9 1007.5 0.0
16/08:00am 21.3 20.5 16.0 72 3.2 SE 15 20 8 11 1007.7 1007.3 0.0
16/07:30am 20.1 20.0 15.9 77 2.5 ESE 11 17 6 9 1007.6 1007.2 0.0
16/07:00am 18.5 19.1 15.7 84 1.7 SE 7 9 4 5 1007.3 1006.9 0.0
16/06:30am 17.4 17.4 15.2 87 1.3 SSE 9 11 5 6 1006.9 1006.4 0.0
16/06:00am 17.9 17.5 15.3 85 1.5 SSE 11 13 6 7 1006.6 1006.1 0.0
16/05:30am 18.1 17.8 15.4 84 1.6 SSE 11 13 6 7 1006.3 1005.8 0.0
16/05:00am 18.2 18.2 15.3 83 1.7 S 9 11 5 6 1006.3 1005.8 0.0
16/04:30am 19.3 18.9 15.2 77 2.4 S 11 13 6 7 1005.9 1005.4 0.0
16/04:00am 19.7 18.9 15.1 75 2.7 S 13 15 7 8 1005.9 1005.4 0.0
16/03:30am 19.5 18.8 15.4 77 2.4 S 13 15 7 8 1006.0 1005.5 0.0
16/03:00am 19.5 19.6 15.6 78 2.3 SSW 9 11 5 6 1006.0 1005.5 0.0
16/02:30am 20.1 20.2 15.5 75 2.7 WSW 9 9 5 5 1006.3 1005.8 0.0
16/02:00am 20.3 21.7 15.3 73 3.0 WSW 2 7 1 4 1006.4 1005.9 0.0
16/01:30am 20.0 20.8 15.8 77 2.5 W 6 7 3 4 1006.4 1005.9 0.0
16/01:00am 20.4 21.1 15.6 74 2.9 W 6 7 3 4 1006.3 1005.8 0.0
16/12:30am 22.0 21.8 14.6 63 4.4 SW 9 9 5 5 1006.0 1005.5 0.0
16/12:00am 22.7 22.0 14.3 59 5.0 SSW 11 13 6 7 1006.0 1005.5 0.0
 
Date/Time
EDT
Temp
°C
App
Temp
°C
Dew
Point
°C
Rel
Hum
%
Delta-T
°C
Wind Press
QNH
hPa
Press
MSL
hPa
Rain since
9am
mm
Dir  Spd
km/h
Gust
km/h
Spd
kts
Gust
kts
15/11:30pm 22.5 22.1 15.1 63 4.4 SW 11 13 6 7 1005.8 1005.3 0.0
15/11:00pm 23.6 22.8 14.0 55 5.7 W 11 13 6 7 1005.8 1005.3 0.0
15/10:30pm 24.1 23.4 14.2 54 5.9 W 11 15 6 8 1005.6 1005.1 0.0
15/10:00pm 24.7 23.6 13.0 48 6.8 SW 11 15 6 8 1005.1 1004.6 0.0
15/09:30pm 25.9 24.1 12.0 42 8.0 SW 13 15 7 8 1005.1 1004.6 0.0
15/09:00pm 27.4 25.4 11.4 37 9.2 SW 13 17 7 9 1005.1 1004.6 0.0
15/08:30pm 29.3 26.8 10.9 32 10.6 SW 15 20 8 11 1004.5 1004.0 0.0
15/08:00pm 30.8 26.9 9.6 27 12.0 SW 20 26 11 14 1004.2 1003.7 0.0
15/07:30pm 31.7 27.5 9.8 26 12.5 WSW 22 32 12 17 1003.8 1003.3 0.0
15/07:00pm 32.2 27.6 9.7 25 12.9 SW 24 32 13 17 1004.2 1003.7 0.0
15/06:30pm 32.7 29.0 10.1 25 13.0 SW 20 30 11 16 1003.4 1002.9 0.0
15/06:00pm 32.5 27.4 10.5 26 12.8 WSW 28 41 15 22 1003.4 1002.9 0.0
15/05:30pm 32.8 28.1 10.8 26 12.8 SW 26 39 14 21 1003.5 1003.0 0.0
15/05:05pm 32.8 27.8 10.8 26 12.8 WSW 28 50 15 27 1003.6 1003.1 0.0
15/05:00pm 32.4 28.2 11.0 27 12.5 WSW 24 41 13 22 1003.7 1003.2 0.0
15/04:30pm 31.9 27.3 11.1 28 12.1 WSW 26 37 14 20 1003.9 1003.4 0.0
15/04:00pm 31.9 27.2 10.6 27 12.3 WSW 26 41 14 22 1004.1 1003.6 0.0

Other formats

Comma delimited format used in spreadsheet applications
http://www.bom.gov.au/fwo/IDN60801/IDN60801.94702.axf

JavaScript Object Notation format (JSON) in row-major order
http://www.bom.gov.au/fwo/IDN60801/IDN60801.94702.json

Data quality

Most of these data are generated automatically and are frequently updated. Quality checks on data are not normally performed. It is possible for incorrect values to appear. Refer to information at About Latest Weather Observations and please check the disclaimer before using these data.